Detall de PIREP

Printer-friendly versionPDF version

[2013/12/29 09:28:00]
Flight IATA:CT2304
Pilot Number:044
Company ICAO:CAT
Aircraft Type:BE20/A
PAX:4
Departing Airport: LIEA
Destination Airport: LIBC
Alternate Airport:LIBR
Online: VATSIM
Route:KOLUS M603 SOR M736 CRN
Flight Level:F180
No Slew and time accel
No pause
Crash detect
Detect pilot in Cockpit between each 30 and 45 minutes
09:28 Zero fuel Weight: 9315 Lbs, Fuel Weight: 2568 Lbs
09:28 VATSIM:LIEA 290850Z 35004KT 290V010 9999 FEW025 13/09 Q1021
09:28 VATSIM:LIBC 290850Z 35005KT 320V030 9999 FEW020 12/10 Q1019
09:29 VOICE CATALONIAN
09:30 Parking Brakes off
09:36 Take-off
09:36 Take off Weight: 11864 Lbs
09:36 Wind: 323º @ 005 Knots Heading: 023º
09:36 POS N40º 38´ 09´´ E008º 17´ 35´´
09:36 Flaps:1 at 133 Knots
09:36 Gear Up: 135 Knots
09:36 Flaps:0 at 128 Knots
09:51 Wind:317º@017 Knots Heading: 057º Ground Speed: 205 Knots Altitude 16778 ft
09:52 TOC
09:52 Fuel Weight: 2343 Lb
10:06 Wind:262º@024 Knots Heading: 084º Ground Speed: 290 Knots Altitude 18166 ft
10:21 Wind:133º@016 Knots Heading: 088º Ground Speed: 263 Knots Altitude 18143 ft
10:36 Wind:121º@012 Knots Heading: 109º Ground Speed: 259 Knots Altitude 18057 ft
10:51 Wind:104º@001 Knots Heading: 125º Ground Speed: 274 Knots Altitude 18074 ft
11:06 Wind:250º@009 Knots Heading: 128º Ground Speed: 278 Knots Altitude 18061 ft
11:08 TOD
11:08 Fuel Weight: 1390 Lb
11:21 Wind:357º@006 Knots Heading: 125º Ground Speed: 196 Knots Altitude 6181 ft
11:26 Flaps:1 at 128 Knots
11:32 Flaps:2 at 133 Knots
11:32 Gear Down: 126 Knots
11:36 Wind:015º@005 Knots Heading: 351º Ground Speed: 123 Knots Altitude 721 ft
11:36 TouchDown:Rate -261 ft/min Speed: 107 Knots
11:36 VATSIM:LIBC 291050Z 02005KT 350V060 9999 FEW020 14/11 Q1019
11:36 Land
11:36 Wind:017º@005 Knots
11:36 Heading: 352º
11:36 Flight Duration: 02:00
11:36 Landing Weight: 10551 Lbs
11:36 POS N38º 59´ 58´´ E017º 04´ 46´´
11:39 Parking brakes on
11:39 Block to Block Duration: 02:09
11:39 Final Fuel: 3677 Lbls
11:39 Spent Fuel: 878706250 Lbls
11:39 Flight Length: 483 NM
11:39 TOD Land Length: 86 NM

Exportar CSV

Powered by Drupal - Modified by Danger4k